sensor_id;sensor_type;location;lat;lon;timestamp;P1;durP1;ratioP1;P2;durP2;ratioP2
78923;SDS011;75282;41.394;23.212;2024-03-07T00:01:39;22.07;;;13.63;;
78923;SDS011;75282;41.394;23.212;2024-03-07T00:04:05;25.97;;;13.50;;
78923;SDS011;75282;41.394;23.212;2024-03-07T00:06:31;22.45;;;14.93;;
78923;SDS011;75282;41.394;23.212;2024-03-07T00:08:56;29.02;;;17.73;;
78923;SDS011;75282;41.394;23.212;2024-03-07T00:11:21;33.33;;;19.52;;
78923;SDS011;75282;41.394;23.212;2024-03-07T00:13:47;36.97;;;20.15;;
78923;SDS011;75282;41.394;23.212;2024-03-07T00:16:12;35.10;;;19.73;;
78923;SDS011;75282;41.394;23.212;2024-03-07T00:18:38;30.93;;;19.87;;
78923;SDS011;75282;41.394;23.212;2024-03-07T00:21:03;36.95;;;22.08;;
78923;SDS011;75282;41.394;23.212;2024-03-07T00:23:29;36.22;;;22.27;;
78923;SDS011;75282;41.394;23.212;2024-03-07T00:25:54;36.38;;;20.80;;
78923;SDS011;75282;41.394;23.212;2024-03-07T00:28:20;32.57;;;20.57;;
78923;SDS011;75282;41.394;23.212;2024-03-07T00:30:45;42.00;;;22.52;;
78923;SDS011;75282;41.394;23.212;2024-03-07T00:33:13;34.15;;;21.73;;
78923;SDS011;75282;41.394;23.212;2024-03-07T00:35:39;36.30;;;22.05;;
78923;SDS011;75282;41.394;23.212;2024-03-07T00:38:04;34.72;;;19.75;;
78923;SDS011;75282;41.394;23.212;2024-03-07T00:40:30;29.98;;;19.20;;
78923;SDS011;75282;41.394;23.212;2024-03-07T00:42:57;27.33;;;17.25;;
78923;SDS011;75282;41.394;23.212;2024-03-07T00:45:24;29.23;;;17.52;;
78923;SDS011;75282;41.394;23.212;2024-03-07T00:47:49;29.75;;;17.67;;
78923;SDS011;75282;41.394;23.212;2024-03-07T00:50:15;26.77;;;17.60;;
78923;SDS011;75282;41.394;23.212;2024-03-07T00:52:41;30.58;;;17.50;;
78923;SDS011;75282;41.394;23.212;2024-03-07T00:55:06;25.92;;;16.27;;
78923;SDS011;75282;41.394;23.212;2024-03-07T00:57:35;25.50;;;16.02;;
78923;SDS011;75282;41.394;23.212;2024-03-07T01:00:01;26.85;;;16.70;;
78923;SDS011;75282;41.394;23.212;2024-03-07T01:02:27;23.88;;;14.90;;
78923;SDS011;75282;41.394;23.212;2024-03-07T01:04:52;31.53;;;17.97;;
78923;SDS011;75282;41.394;23.212;2024-03-07T01:07:18;26.38;;;15.45;;
78923;SDS011;75282;41.394;23.212;2024-03-07T01:09:44;23.48;;;14.43;;
78923;SDS011;75282;41.394;23.212;2024-03-07T01:12:09;22.27;;;15.07;;
78923;SDS011;75282;41.394;23.212;2024-03-07T01:14:36;24.90;;;15.02;;
78923;SDS011;75282;41.394;23.212;2024-03-07T01:17:01;26.75;;;14.90;;
78923;SDS011;75282;41.394;23.212;2024-03-07T01:19:27;22.35;;;15.10;;
78923;SDS011;75282;41.394;23.212;2024-03-07T01:21:52;28.80;;;16.08;;
78923;SDS011;75282;41.394;23.212;2024-03-07T01:24:17;20.30;;;13.80;;
78923;SDS011;75282;41.394;23.212;2024-03-07T01:26:45;28.20;;;16.00;;
78923;SDS011;75282;41.394;23.212;2024-03-07T01:29:10;30.45;;;16.95;;
78923;SDS011;75282;41.394;23.212;2024-03-07T01:31:36;22.40;;;15.25;;
78923;SDS011;75282;41.394;23.212;2024-03-07T01:34:01;22.63;;;15.50;;
78923;SDS011;75282;41.394;23.212;2024-03-07T01:36:26;23.37;;;14.47;;
78923;SDS011;75282;41.394;23.212;2024-03-07T01:38:52;21.20;;;14.00;;
78923;SDS011;75282;41.394;23.212;2024-03-07T01:41:17;21.10;;;13.48;;
78923;SDS011;75282;41.394;23.212;2024-03-07T01:43:43;22.67;;;13.93;;
78923;SDS011;75282;41.394;23.212;2024-03-07T01:46:08;22.93;;;13.53;;
78923;SDS011;75282;41.394;23.212;2024-03-07T01:48:35;23.00;;;14.43;;
78923;SDS011;75282;41.394;23.212;2024-03-07T01:51:01;21.17;;;13.18;;
78923;SDS011;75282;41.394;23.212;2024-03-07T01:53:28;21.95;;;12.68;;
78923;SDS011;75282;41.394;23.212;2024-03-07T01:55:55;19.40;;;10.80;;
78923;SDS011;75282;41.394;23.212;2024-03-07T01:58:21;22.08;;;13.23;;
78923;SDS011;75282;41.394;23.212;2024-03-07T02:00:47;19.25;;;11.40;;
78923;SDS011;75282;41.394;23.212;2024-03-07T02:03:15;20.25;;;12.00;;
78923;SDS011;75282;41.394;23.212;2024-03-07T02:05:41;18.98;;;12.43;;
78923;SDS011;75282;41.394;23.212;2024-03-07T02:08:06;22.95;;;12.13;;
78923;SDS011;75282;41.394;23.212;2024-03-07T02:10:32;17.92;;;11.48;;
78923;SDS011;75282;41.394;23.212;2024-03-07T02:12:57;19.35;;;11.93;;
78923;SDS011;75282;41.394;23.212;2024-03-07T02:15:22;18.37;;;10.87;;
78923;SDS011;75282;41.394;23.212;2024-03-07T02:17:48;21.03;;;11.33;;
78923;SDS011;75282;41.394;23.212;2024-03-07T02:20:13;20.13;;;11.90;;
78923;SDS011;75282;41.394;23.212;2024-03-07T02:22:39;19.05;;;12.02;;
78923;SDS011;75282;41.394;23.212;2024-03-07T02:25:05;19.98;;;12.45;;
78923;SDS011;75282;41.394;23.212;2024-03-07T02:27:31;22.83;;;12.45;;
78923;SDS011;75282;41.394;23.212;2024-03-07T02:29:57;23.90;;;14.65;;
78923;SDS011;75282;41.394;23.212;2024-03-07T02:32:22;24.13;;;13.20;;
78923;SDS011;75282;41.394;23.212;2024-03-07T02:34:48;30.13;;;17.15;;
78923;SDS011;75282;41.394;23.212;2024-03-07T02:37:13;34.15;;;20.45;;
78923;SDS011;75282;41.394;23.212;2024-03-07T02:39:39;27.95;;;17.52;;
78923;SDS011;75282;41.394;23.212;2024-03-07T02:42:04;27.70;;;17.55;;
78923;SDS011;75282;41.394;23.212;2024-03-07T02:44:30;33.55;;;17.70;;
78923;SDS011;75282;41.394;23.212;2024-03-07T02:46:57;29.02;;;17.17;;
78923;SDS011;75282;41.394;23.212;2024-03-07T02:49:22;28.55;;;17.20;;
78923;SDS011;75282;41.394;23.212;2024-03-07T02:51:48;29.83;;;16.88;;
78923;SDS011;75282;41.394;23.212;2024-03-07T02:54:13;26.97;;;17.37;;
78923;SDS011;75282;41.394;23.212;2024-03-07T02:56:38;26.05;;;16.70;;
78923;SDS011;75282;41.394;23.212;2024-03-07T02:59:04;24.58;;;15.40;;
78923;SDS011;75282;41.394;23.212;2024-03-07T03:01:29;29.50;;;16.63;;
78923;SDS011;75282;41.394;23.212;2024-03-07T03:03:54;29.50;;;16.93;;
78923;SDS011;75282;41.394;23.212;2024-03-07T03:06:20;24.13;;;13.83;;
78923;SDS011;75282;41.394;23.212;2024-03-07T03:08:45;25.65;;;15.30;;
78923;SDS011;75282;41.394;23.212;2024-03-07T03:11:11;28.02;;;15.60;;
78923;SDS011;75282;41.394;23.212;2024-03-07T03:13:38;29.98;;;16.88;;
78923;SDS011;75282;41.394;23.212;2024-03-07T03:16:07;32.25;;;16.40;;
78923;SDS011;75282;41.394;23.212;2024-03-07T03:18:33;29.80;;;17.65;;
78923;SDS011;75282;41.394;23.212;2024-03-07T03:20:59;33.53;;;19.13;;
78923;SDS011;75282;41.394;23.212;2024-03-07T03:23:28;36.03;;;19.33;;
78923;SDS011;75282;41.394;23.212;2024-03-07T03:25:53;27.38;;;17.50;;
78923;SDS011;75282;41.394;23.212;2024-03-07T03:28:20;27.33;;;16.50;;
78923;SDS011;75282;41.394;23.212;2024-03-07T03:30:46;25.58;;;14.63;;
78923;SDS011;75282;41.394;23.212;2024-03-07T03:33:12;24.27;;;14.38;;
78923;SDS011;75282;41.394;23.212;2024-03-07T03:35:37;25.17;;;13.88;;
78923;SDS011;75282;41.394;23.212;2024-03-07T03:38:03;22.38;;;13.63;;
78923;SDS011;75282;41.394;23.212;2024-03-07T03:40:29;23.40;;;13.18;;
78923;SDS011;75282;41.394;23.212;2024-03-07T03:42:54;20.93;;;13.03;;
78923;SDS011;75282;41.394;23.212;2024-03-07T03:45:20;27.67;;;13.32;;
78923;SDS011;75282;41.394;23.212;2024-03-07T03:47:45;27.67;;;14.05;;
78923;SDS011;75282;41.394;23.212;2024-03-07T03:50:11;20.65;;;12.63;;
78923;SDS011;75282;41.394;23.212;2024-03-07T03:52:38;18.85;;;12.18;;
78923;SDS011;75282;41.394;23.212;2024-03-07T03:55:04;19.33;;;12.05;;
78923;SDS011;75282;41.394;23.212;2024-03-07T03:57:40;15.80;;;10.55;;
78923;SDS011;75282;41.394;23.212;2024-03-07T04:00:08;22.58;;;11.32;;
78923;SDS011;75282;41.394;23.212;2024-03-07T04:02:38;23.27;;;12.02;;
78923;SDS011;75282;41.394;23.212;2024-03-07T04:05:06;19.48;;;9.77;;
78923;SDS011;75282;41.394;23.212;2024-03-07T04:07:34;14.80;;;9.02;;
78923;SDS011;75282;41.394;23.212;2024-03-07T04:10:00;13.18;;;8.50;;
78923;SDS011;75282;41.394;23.212;2024-03-07T04:12:28;15.38;;;9.40;;
78923;SDS011;75282;41.394;23.212;2024-03-07T04:14:53;18.65;;;11.18;;
78923;SDS011;75282;41.394;23.212;2024-03-07T04:17:21;17.17;;;11.35;;
78923;SDS011;75282;41.394;23.212;2024-03-07T04:19:47;21.25;;;12.10;;
78923;SDS011;75282;41.394;23.212;2024-03-07T04:22:12;18.33;;;10.63;;
78923;SDS011;75282;41.394;23.212;2024-03-07T04:24:38;17.90;;;11.32;;
78923;SDS011;75282;41.394;23.212;2024-03-07T04:27:04;18.63;;;10.85;;
78923;SDS011;75282;41.394;23.212;2024-03-07T04:29:33;17.98;;;9.98;;
78923;SDS011;75282;41.394;23.212;2024-03-07T04:32:01;15.05;;;9.48;;
78923;SDS011;75282;41.394;23.212;2024-03-07T04:34:28;15.68;;;10.82;;
78923;SDS011;75282;41.394;23.212;2024-03-07T04:36:55;19.27;;;12.15;;
78923;SDS011;75282;41.394;23.212;2024-03-07T04:39:26;22.20;;;13.23;;
78923;SDS011;75282;41.394;23.212;2024-03-07T04:42:07;20.95;;;13.80;;
78923;SDS011;75282;41.394;23.212;2024-03-07T04:44:34;18.00;;;12.15;;
78923;SDS011;75282;41.394;23.212;2024-03-07T04:47:00;19.13;;;11.02;;
78923;SDS011;75282;41.394;23.212;2024-03-07T04:49:27;21.38;;;13.07;;
78923;SDS011;75282;41.394;23.212;2024-03-07T04:51:54;25.80;;;13.55;;
78923;SDS011;75282;41.394;23.212;2024-03-07T04:54:20;29.70;;;16.23;;
78923;SDS011;75282;41.394;23.212;2024-03-07T04:56:46;27.25;;;14.93;;
78923;SDS011;75282;41.394;23.212;2024-03-07T04:59:13;31.02;;;14.40;;
78923;SDS011;75282;41.394;23.212;2024-03-07T05:01:39;27.45;;;13.70;;
78923;SDS011;75282;41.394;23.212;2024-03-07T05:04:05;19.35;;;12.65;;
78923;SDS011;75282;41.394;23.212;2024-03-07T05:06:31;21.50;;;12.52;;
78923;SDS011;75282;41.394;23.212;2024-03-07T05:08:59;21.88;;;13.55;;
78923;SDS011;75282;41.394;23.212;2024-03-07T05:11:31;24.02;;;14.75;;
78923;SDS011;75282;41.394;23.212;2024-03-07T05:13:56;25.13;;;14.80;;
78923;SDS011;75282;41.394;23.212;2024-03-07T05:16:25;21.65;;;12.82;;
78923;SDS011;75282;41.394;23.212;2024-03-07T05:18:51;17.95;;;11.43;;
78923;SDS011;75282;41.394;23.212;2024-03-07T05:21:17;17.08;;;9.07;;
78923;SDS011;75282;41.394;23.212;2024-03-07T05:24:13;16.85;;;8.98;;
78923;SDS011;75282;41.394;23.212;2024-03-07T05:26:38;15.02;;;8.20;;
78923;SDS011;75282;41.394;23.212;2024-03-07T05:29:06;12.48;;;8.32;;
78923;SDS011;75282;41.394;23.212;2024-03-07T05:31:38;14.65;;;9.00;;
78923;SDS011;75282;41.394;23.212;2024-03-07T05:34:04;32.38;;;16.25;;
78923;SDS011;75282;41.394;23.212;2024-03-07T05:36:33;34.00;;;17.55;;
78923;SDS011;75282;41.394;23.212;2024-03-07T05:38:59;19.73;;;11.75;;
78923;SDS011;75282;41.394;23.212;2024-03-07T05:41:24;16.52;;;9.75;;
78923;SDS011;75282;41.394;23.212;2024-03-07T05:43:53;19.30;;;11.65;;
78923;SDS011;75282;41.394;23.212;2024-03-07T05:46:19;20.73;;;12.38;;
78923;SDS011;75282;41.394;23.212;2024-03-07T05:48:45;11.95;;;6.97;;
78923;SDS011;75282;41.394;23.212;2024-03-07T05:53:40;4.47;;;2.57;;
78923;SDS011;75282;41.394;23.212;2024-03-07T05:56:05;7.82;;;2.60;;
78923;SDS011;75282;41.394;23.212;2024-03-07T05:58:31;3.67;;;1.98;;
78923;SDS011;75282;41.394;23.212;2024-03-07T06:00:56;5.10;;;1.90;;
78923;SDS011;75282;41.394;23.212;2024-03-07T06:03:21;3.33;;;1.40;;
78923;SDS011;75282;41.394;23.212;2024-03-07T06:05:49;4.75;;;2.30;;
78923;SDS011;75282;41.394;23.212;2024-03-07T06:08:15;4.07;;;2.05;;
78923;SDS011;75282;41.394;23.212;2024-03-07T06:10:44;2.15;;;1.35;;
78923;SDS011;75282;41.394;23.212;2024-03-07T06:13:14;4.28;;;1.60;;
78923;SDS011;75282;41.394;23.212;2024-03-07T06:15:44;1.30;;;0.90;;
78923;SDS011;75282;41.394;23.212;2024-03-07T06:18:10;9.45;;;2.55;;
78923;SDS011;75282;41.394;23.212;2024-03-07T06:20:38;5.90;;;2.05;;
78923;SDS011;75282;41.394;23.212;2024-03-07T06:23:06;4.15;;;2.35;;
78923;SDS011;75282;41.394;23.212;2024-03-07T06:25:34;6.00;;;1.83;;
78923;SDS011;75282;41.394;23.212;2024-03-07T06:28:11;4.43;;;1.00;;
78923;SDS011;75282;41.394;23.212;2024-03-07T06:30:41;5.22;;;1.52;;
78923;SDS011;75282;41.394;23.212;2024-03-07T06:33:10;3.83;;;1.30;;
78923;SDS011;75282;41.394;23.212;2024-03-07T06:35:36;5.35;;;3.75;;
78923;SDS011;75282;41.394;23.212;2024-03-07T06:38:05;5.80;;;3.47;;
78923;SDS011;75282;41.394;23.212;2024-03-07T06:40:39;3.38;;;1.88;;
78923;SDS011;75282;41.394;23.212;2024-03-07T06:43:05;2.83;;;2.05;;
78923;SDS011;75282;41.394;23.212;2024-03-07T06:45:34;1.35;;;0.90;;
78923;SDS011;75282;41.394;23.212;2024-03-07T06:48:00;5.13;;;2.55;;
78923;SDS011;75282;41.394;23.212;2024-03-07T06:50:26;6.47;;;2.92;;
78923;SDS011;75282;41.394;23.212;2024-03-07T06:52:54;3.10;;;2.10;;
78923;SDS011;75282;41.394;23.212;2024-03-07T06:55:19;1.88;;;1.58;;
78923;SDS011;75282;41.394;23.212;2024-03-07T06:57:45;2.35;;;1.40;;
78923;SDS011;75282;41.394;23.212;2024-03-07T07:00:14;1.67;;;0.98;;
78923;SDS011;75282;41.394;23.212;2024-03-07T07:02:47;4.22;;;2.00;;
78923;SDS011;75282;41.394;23.212;2024-03-07T07:05:13;4.47;;;1.92;;
78923;SDS011;75282;41.394;23.212;2024-03-07T07:07:43;3.83;;;1.80;;
78923;SDS011;75282;41.394;23.212;2024-03-07T07:10:09;7.22;;;3.90;;
78923;SDS011;75282;41.394;23.212;2024-03-07T07:12:41;8.93;;;4.57;;
78923;SDS011;75282;41.394;23.212;2024-03-07T07:15:17;8.20;;;4.47;;
78923;SDS011;75282;41.394;23.212;2024-03-07T07:17:45;6.95;;;3.92;;
78923;SDS011;75282;41.394;23.212;2024-03-07T07:20:12;4.30;;;2.72;;
78923;SDS011;75282;41.394;23.212;2024-03-07T07:22:40;3.85;;;1.90;;
78923;SDS011;75282;41.394;23.212;2024-03-07T07:25:06;3.05;;;1.70;;
78923;SDS011;75282;41.394;23.212;2024-03-07T07:27:42;4.97;;;3.85;;
78923;SDS011;75282;41.394;23.212;2024-03-07T07:30:14;6.95;;;4.00;;
78923;SDS011;75282;41.394;23.212;2024-03-07T07:32:41;7.40;;;4.90;;
78923;SDS011;75282;41.394;23.212;2024-03-07T07:35:08;5.38;;;3.65;;
78923;SDS011;75282;41.394;23.212;2024-03-07T07:37:39;8.30;;;3.70;;
78923;SDS011;75282;41.394;23.212;2024-03-07T07:40:16;6.22;;;3.85;;
78923;SDS011;75282;41.394;23.212;2024-03-07T07:42:47;10.27;;;5.45;;
78923;SDS011;75282;41.394;23.212;2024-03-07T07:45:13;7.40;;;4.35;;
78923;SDS011;75282;41.394;23.212;2024-03-07T07:47:43;4.53;;;1.90;;
78923;SDS011;75282;41.394;23.212;2024-03-07T07:50:11;1.90;;;1.30;;
78923;SDS011;75282;41.394;23.212;2024-03-07T07:52:42;4.15;;;1.60;;
78923;SDS011;75282;41.394;23.212;2024-03-07T07:55:08;5.70;;;2.30;;
78923;SDS011;75282;41.394;23.212;2024-03-07T07:57:43;5.75;;;2.53;;
78923;SDS011;75282;41.394;23.212;2024-03-07T08:00:12;6.80;;;3.70;;
78923;SDS011;75282;41.394;23.212;2024-03-07T08:05:19;4.80;;;2.95;;
78923;SDS011;75282;41.394;23.212;2024-03-07T08:07:52;6.80;;;3.92;;
78923;SDS011;75282;41.394;23.212;2024-03-07T08:10:19;5.68;;;2.22;;
78923;SDS011;75282;41.394;23.212;2024-03-07T08:12:45;4.05;;;2.40;;
78923;SDS011;75282;41.394;23.212;2024-03-07T08:15:11;6.25;;;3.55;;
78923;SDS011;75282;41.394;23.212;2024-03-07T08:17:47;5.95;;;4.47;;
78923;SDS011;75282;41.394;23.212;2024-03-07T08:20:14;7.75;;;3.38;;
78923;SDS011;75282;41.394;23.212;2024-03-07T08:22:40;3.50;;;2.45;;
78923;SDS011;75282;41.394;23.212;2024-03-07T08:25:07;4.28;;;1.98;;
78923;SDS011;75282;41.394;23.212;2024-03-07T08:27:37;2.25;;;1.48;;
78923;SDS011;75282;41.394;23.212;2024-03-07T08:30:06;3.53;;;2.30;;
78923;SDS011;75282;41.394;23.212;2024-03-07T08:32:38;8.80;;;2.58;;
78923;SDS011;75282;41.394;23.212;2024-03-07T08:35:07;3.65;;;2.30;;
78923;SDS011;75282;41.394;23.212;2024-03-07T08:37:38;8.65;;;2.40;;
78923;SDS011;75282;41.394;23.212;2024-03-07T08:40:04;4.53;;;2.55;;
78923;SDS011;75282;41.394;23.212;2024-03-07T08:42:34;12.07;;;4.45;;
78923;SDS011;75282;41.394;23.212;2024-03-07T08:45:00;9.43;;;5.50;;
78923;SDS011;75282;41.394;23.212;2024-03-07T08:47:29;3.70;;;1.50;;
78923;SDS011;75282;41.394;23.212;2024-03-07T08:49:56;4.30;;;1.83;;
78923;SDS011;75282;41.394;23.212;2024-03-07T08:52:21;1.33;;;1.20;;
78923;SDS011;75282;41.394;23.212;2024-03-07T08:54:47;1.73;;;1.45;;
78923;SDS011;75282;41.394;23.212;2024-03-07T08:57:13;3.42;;;2.25;;
78923;SDS011;75282;41.394;23.212;2024-03-07T08:59:42;1.60;;;1.20;;
78923;SDS011;75282;41.394;23.212;2024-03-07T09:02:07;2.10;;;0.88;;
78923;SDS011;75282;41.394;23.212;2024-03-07T09:04:32;0.77;;;0.73;;
78923;SDS011;75282;41.394;23.212;2024-03-07T09:06:58;1.10;;;1.00;;
78923;SDS011;75282;41.394;23.212;2024-03-07T09:09:23;6.03;;;3.47;;
78923;SDS011;75282;41.394;23.212;2024-03-07T09:11:49;4.85;;;2.92;;
78923;SDS011;75282;41.394;23.212;2024-03-07T09:14:14;5.90;;;3.47;;
78923;SDS011;75282;41.394;23.212;2024-03-07T09:16:39;4.13;;;2.53;;
78923;SDS011;75282;41.394;23.212;2024-03-07T09:19:05;4.65;;;2.75;;
78923;SDS011;75282;41.394;23.212;2024-03-07T09:21:31;5.57;;;3.15;;
78923;SDS011;75282;41.394;23.212;2024-03-07T09:23:56;4.63;;;2.83;;
78923;SDS011;75282;41.394;23.212;2024-03-07T09:26:21;3.57;;;2.40;;
78923;SDS011;75282;41.394;23.212;2024-03-07T09:28:47;3.75;;;2.30;;
78923;SDS011;75282;41.394;23.212;2024-03-07T09:31:16;6.67;;;2.50;;
78923;SDS011;75282;41.394;23.212;2024-03-07T09:33:41;4.40;;;2.40;;
78923;SDS011;75282;41.394;23.212;2024-03-07T09:36:06;3.00;;;2.00;;
78923;SDS011;75282;41.394;23.212;2024-03-07T09:38:33;3.05;;;1.85;;
78923;SDS011;75282;41.394;23.212;2024-03-07T09:40:59;2.15;;;1.50;;
78923;SDS011;75282;41.394;23.212;2024-03-07T09:43:25;2.97;;;1.40;;
78923;SDS011;75282;41.394;23.212;2024-03-07T09:45:51;2.38;;;1.65;;
78923;SDS011;75282;41.394;23.212;2024-03-07T09:48:17;2.08;;;1.45;;
78923;SDS011;75282;41.394;23.212;2024-03-07T09:50:44;4.35;;;2.03;;
78923;SDS011;75282;41.394;23.212;2024-03-07T09:53:11;7.53;;;4.78;;
78923;SDS011;75282;41.394;23.212;2024-03-07T09:55:37;6.10;;;3.53;;
78923;SDS011;75282;41.394;23.212;2024-03-07T09:58:02;5.22;;;2.33;;
78923;SDS011;75282;41.394;23.212;2024-03-07T10:00:31;4.57;;;2.75;;
78923;SDS011;75282;41.394;23.212;2024-03-07T10:02:59;5.70;;;3.20;;
78923;SDS011;75282;41.394;23.212;2024-03-07T10:05:27;4.65;;;2.60;;
78923;SDS011;75282;41.394;23.212;2024-03-07T10:07:54;12.50;;;5.07;;
78923;SDS011;75282;41.394;23.212;2024-03-07T10:10:20;7.50;;;3.17;;
78923;SDS011;75282;41.394;23.212;2024-03-07T10:12:46;10.63;;;4.85;;
78923;SDS011;75282;41.394;23.212;2024-03-07T10:15:12;12.32;;;5.30;;
78923;SDS011;75282;41.394;23.212;2024-03-07T10:17:41;4.38;;;2.40;;
78923;SDS011;75282;41.394;23.212;2024-03-07T10:20:08;5.35;;;2.50;;
78923;SDS011;75282;41.394;23.212;2024-03-07T10:22:38;22.08;;;8.57;;
78923;SDS011;75282;41.394;23.212;2024-03-07T10:25:06;6.03;;;3.05;;
78923;SDS011;75282;41.394;23.212;2024-03-07T10:27:35;5.57;;;3.08;;
78923;SDS011;75282;41.394;23.212;2024-03-07T10:30:01;7.07;;;3.30;;
78923;SDS011;75282;41.394;23.212;2024-03-07T10:32:26;7.10;;;2.58;;
78923;SDS011;75282;41.394;23.212;2024-03-07T10:34:52;2.88;;;1.65;;
78923;SDS011;75282;41.394;23.212;2024-03-07T10:37:19;3.97;;;2.47;;
78923;SDS011;75282;41.394;23.212;2024-03-07T10:39:50;1.83;;;1.42;;
78923;SDS011;75282;41.394;23.212;2024-03-07T10:42:19;3.00;;;1.75;;
78923;SDS011;75282;41.394;23.212;2024-03-07T10:44:49;4.10;;;2.33;;
78923;SDS011;75282;41.394;23.212;2024-03-07T10:47:18;9.73;;;3.30;;
78923;SDS011;75282;41.394;23.212;2024-03-07T10:52:28;6.10;;;2.45;;
78923;SDS011;75282;41.394;23.212;2024-03-07T11:00:04;2.67;;;1.30;;
78923;SDS011;75282;41.394;23.212;2024-03-07T11:02:48;1.60;;;1.30;;
78923;SDS011;75282;41.394;23.212;2024-03-07T11:05:18;2.75;;;1.48;;
78923;SDS011;75282;41.394;23.212;2024-03-07T11:07:44;2.50;;;1.63;;
78923;SDS011;75282;41.394;23.212;2024-03-07T11:10:15;5.22;;;2.75;;
78923;SDS011;75282;41.394;23.212;2024-03-07T11:12:48;6.30;;;3.10;;
78923;SDS011;75282;41.394;23.212;2024-03-07T11:15:18;3.85;;;2.50;;
78923;SDS011;75282;41.394;23.212;2024-03-07T11:17:46;6.15;;;2.70;;
78923;SDS011;75282;41.394;23.212;2024-03-07T11:26:07;7.35;;;3.25;;
78923;SDS011;75282;41.394;23.212;2024-03-07T11:35:11;11.80;;;7.28;;
78923;SDS011;75282;41.394;23.212;2024-03-07T11:37:57;8.23;;;4.43;;
78923;SDS011;75282;41.394;23.212;2024-03-07T11:40:44;10.77;;;5.63;;
78923;SDS011;75282;41.394;23.212;2024-03-07T11:43:16;4.03;;;2.95;;
78923;SDS011;75282;41.394;23.212;2024-03-07T11:45:47;1.33;;;0.90;;
78923;SDS011;75282;41.394;23.212;2024-03-07T11:48:17;1.15;;;1.05;;
78923;SDS011;75282;41.394;23.212;2024-03-07T11:50:45;1.90;;;1.27;;
78923;SDS011;75282;41.394;23.212;2024-03-07T11:53:13;2.13;;;1.30;;
78923;SDS011;75282;41.394;23.212;2024-03-07T11:56:02;1.73;;;0.98;;
78923;SDS011;75282;41.394;23.212;2024-03-07T11:58:37;3.05;;;1.10;;
78923;SDS011;75282;41.394;23.212;2024-03-07T12:01:05;0.95;;;0.43;;
78923;SDS011;75282;41.394;23.212;2024-03-07T12:03:31;0.80;;;0.47;;
78923;SDS011;75282;41.394;23.212;2024-03-07T12:05:59;1.40;;;0.80;;
78923;SDS011;75282;41.394;23.212;2024-03-07T12:08:24;0.73;;;0.70;;
78923;SDS011;75282;41.394;23.212;2024-03-07T12:10:51;1.80;;;1.13;;
78923;SDS011;75282;41.394;23.212;2024-03-07T12:13:21;0.60;;;0.60;;
78923;SDS011;75282;41.394;23.212;2024-03-07T12:15:46;0.75;;;0.70;;
78923;SDS011;75282;41.394;23.212;2024-03-07T12:18:12;1.98;;;1.33;;
78923;SDS011;75282;41.394;23.212;2024-03-07T12:20:42;0.90;;;0.65;;
78923;SDS011;75282;41.394;23.212;2024-03-07T12:23:11;1.00;;;0.80;;
78923;SDS011;75282;41.394;23.212;2024-03-07T12:25:38;1.35;;;1.05;;
78923;SDS011;75282;41.394;23.212;2024-03-07T12:28:12;8.07;;;4.07;;
78923;SDS011;75282;41.394;23.212;2024-03-07T12:30:51;13.98;;;9.70;;
78923;SDS011;75282;41.394;23.212;2024-03-07T12:33:17;8.73;;;5.55;;
78923;SDS011;75282;41.394;23.212;2024-03-07T12:35:45;2.72;;;1.92;;
78923;SDS011;75282;41.394;23.212;2024-03-07T12:38:12;3.30;;;1.88;;
78923;SDS011;75282;41.394;23.212;2024-03-07T12:40:40;3.88;;;1.60;;
78923;SDS011;75282;41.394;23.212;2024-03-07T12:43:12;5.20;;;1.80;;
78923;SDS011;75282;41.394;23.212;2024-03-07T12:45:43;4.15;;;1.73;;
78923;SDS011;75282;41.394;23.212;2024-03-07T12:48:09;5.43;;;3.08;;
78923;SDS011;75282;41.394;23.212;2024-03-07T12:50:39;5.32;;;2.67;;
78923;SDS011;75282;41.394;23.212;2024-03-07T12:53:05;7.32;;;2.55;;
78923;SDS011;75282;41.394;23.212;2024-03-07T12:55:31;3.65;;;1.55;;
78923;SDS011;75282;41.394;23.212;2024-03-07T12:57:56;6.00;;;2.45;;
78923;SDS011;75282;41.394;23.212;2024-03-07T13:00:22;6.68;;;2.47;;
78923;SDS011;75282;41.394;23.212;2024-03-07T13:02:47;6.67;;;2.73;;
78923;SDS011;75282;41.394;23.212;2024-03-07T13:05:13;8.00;;;3.35;;
78923;SDS011;75282;41.394;23.212;2024-03-07T13:07:47;6.40;;;3.28;;
78923;SDS011;75282;41.394;23.212;2024-03-07T13:10:13;4.18;;;2.67;;
78923;SDS011;75282;41.394;23.212;2024-03-07T13:12:45;5.40;;;1.98;;
78923;SDS011;75282;41.394;23.212;2024-03-07T13:15:13;5.60;;;2.92;;
78923;SDS011;75282;41.394;23.212;2024-03-07T13:17:39;9.38;;;4.95;;
78923;SDS011;75282;41.394;23.212;2024-03-07T13:20:08;5.43;;;3.17;;
78923;SDS011;75282;41.394;23.212;2024-03-07T13:25:08;8.38;;;3.80;;
78923;SDS011;75282;41.394;23.212;2024-03-07T13:27:41;5.13;;;3.08;;
78923;SDS011;75282;41.394;23.212;2024-03-07T13:30:09;6.72;;;3.95;;
78923;SDS011;75282;41.394;23.212;2024-03-07T13:32:38;3.72;;;2.47;;
78923;SDS011;75282;41.394;23.212;2024-03-07T13:35:03;5.70;;;2.90;;
78923;SDS011;75282;41.394;23.212;2024-03-07T13:37:29;4.28;;;2.10;;
78923;SDS011;75282;41.394;23.212;2024-03-07T13:39:59;2.63;;;2.10;;
78923;SDS011;75282;41.394;23.212;2024-03-07T13:42:45;4.13;;;1.90;;
78923;SDS011;75282;41.394;23.212;2024-03-07T13:45:10;2.73;;;1.87;;
78923;SDS011;75282;41.394;23.212;2024-03-07T13:47:37;5.00;;;2.08;;
78923;SDS011;75282;41.394;23.212;2024-03-07T13:50:06;2.50;;;1.63;;
78923;SDS011;75282;41.394;23.212;2024-03-07T13:52:36;2.75;;;1.55;;
78923;SDS011;75282;41.394;23.212;2024-03-07T13:55:08;2.38;;;1.58;;
78923;SDS011;75282;41.394;23.212;2024-03-07T13:57:43;2.92;;;1.77;;
78923;SDS011;75282;41.394;23.212;2024-03-07T14:00:30;8.07;;;2.00;;
78923;SDS011;75282;41.394;23.212;2024-03-07T14:06:02;3.95;;;1.80;;
78923;SDS011;75282;41.394;23.212;2024-03-07T14:31:41;4.53;;;2.60;;
78923;SDS011;75282;41.394;23.212;2024-03-07T14:34:14;5.05;;;3.00;;
78923;SDS011;75282;41.394;23.212;2024-03-07T14:36:47;4.57;;;3.10;;
78923;SDS011;75282;41.394;23.212;2024-03-07T14:39:16;4.65;;;2.92;;
78923;SDS011;75282;41.394;23.212;2024-03-07T14:42:05;3.80;;;1.83;;
78923;SDS011;75282;41.394;23.212;2024-03-07T14:44:38;4.05;;;2.20;;
78923;SDS011;75282;41.394;23.212;2024-03-07T14:47:05;4.32;;;2.20;;
78923;SDS011;75282;41.394;23.212;2024-03-07T14:49:31;6.40;;;3.80;;
78923;SDS011;75282;41.394;23.212;2024-03-07T14:51:57;7.65;;;4.60;;
78923;SDS011;75282;41.394;23.212;2024-03-07T14:54:23;10.68;;;6.50;;
78923;SDS011;75282;41.394;23.212;2024-03-07T14:56:48;10.32;;;6.50;;
78923;SDS011;75282;41.394;23.212;2024-03-07T14:59:14;8.93;;;5.78;;
78923;SDS011;75282;41.394;23.212;2024-03-07T15:01:40;8.77;;;5.75;;
78923;SDS011;75282;41.394;23.212;2024-03-07T15:04:06;11.52;;;7.25;;
78923;SDS011;75282;41.394;23.212;2024-03-07T15:06:33;9.10;;;5.47;;
78923;SDS011;75282;41.394;23.212;2024-03-07T15:08:59;6.82;;;4.53;;
78923;SDS011;75282;41.394;23.212;2024-03-07T15:11:34;7.60;;;5.03;;
78923;SDS011;75282;41.394;23.212;2024-03-07T15:14:00;8.52;;;5.95;;
78923;SDS011;75282;41.394;23.212;2024-03-07T15:16:26;7.53;;;4.40;;
78923;SDS011;75282;41.394;23.212;2024-03-07T15:18:55;6.47;;;4.20;;
78923;SDS011;75282;41.394;23.212;2024-03-07T15:21:21;5.13;;;3.33;;